.
WxDataArchive / Data Records for 2009-05-03
2009-05-02 May 2009 2009-05-04

Data Records for Sunday, 03 May 2009

Time	Temp	Chill	HIndex	Humid	Dewpt	 Wind 	HiWind	WindDir	Rain 	Barom 
-----	----	-----	------	-----	-----	------	------	-------	-----	----- 
00:00	46.5	46.5	46.5	73	38.3	0	0	---	0.00	29.952 
00:05	46.4	46.4	46.4	74	38.6	0	0	---	0.00	29.952 
00:10	46.2	46.2	46.2	74	38.4	0	0	---	0.00	29.952 
00:15	46.1	46.1	46.1	74	38.3	0	0	---	0.00	29.952 
00:20	46.0	46.0	46.0	76	38.9	0	0	---	0.00	29.952 
00:25	45.8	45.8	45.8	76	38.7	0	0	---	0.00	29.952 
00:30	45.7	45.7	45.7	76	38.6	0	0	---	0.00	29.954 
00:35	45.7	45.7	45.7	75	38.2	0	0	---	0.00	29.954 
00:40	45.5	45.5	45.5	75	38.0	0	0	---	0.00	29.954 
00:45	45.4	45.4	45.4	75	37.9	0	0	---	0.00	29.956 
00:50	45.2	45.2	45.2	75	37.8	0	0	---	0.00	29.956 
00:55	45.1	45.1	45.1	76	38.0	0	0	---	0.00	29.956 
01:00	44.9	44.9	44.9	76	37.8	0	0	---	0.00	29.956 
01:05	44.8	44.8	44.8	77	38.0	0	0	---	0.00	29.956 
01:10	44.6	44.6	44.6	78	38.2	0	0	---	0.00	29.956 
01:15	44.6	44.6	44.6	79	38.5	0	0	---	0.00	29.954 
01:20	44.5	44.5	44.5	80	38.7	0	0	---	0.00	29.954 
01:25	44.3	44.3	44.3	81	38.8	0	0	---	0.00	29.954 
01:30	44.3	44.3	44.3	82	39.2	0	0	---	0.00	29.954 
01:35	44.2	44.2	44.2	83	39.4	0	0	---	0.00	29.954 
01:40	44.2	44.2	44.2	83	39.4	0	0	---	0.00	29.954 
01:45	44.1	44.1	44.1	83	39.3	0	0	---	0.00	29.957 
01:50	43.9	43.9	43.9	83	39.1	0	0	---	0.00	29.957 
01:55	43.8	43.8	43.8	83	39.0	0	0	---	0.00	29.957 
02:00	43.8	43.8	43.8	83	39.0	0	0	---	0.00	29.959 
02:05	43.6	43.6	43.6	83	38.8	0	0	---	0.00	29.959 
02:10	43.5	43.5	43.5	83	38.7	0	0	---	0.00	29.959 
02:15	43.3	43.3	43.3	84	38.8	0	0	---	0.00	29.957 
02:20	43.3	43.3	43.3	84	38.8	0	0	---	0.00	29.957 
02:25	43.3	43.3	43.3	84	38.8	0	0	---	0.00	29.957 
02:30	43.3	43.3	43.3	84	38.8	0	0	---	0.00	29.954 
02:35	43.2	43.2	43.2	84	38.7	0	0	---	0.00	29.954 
02:40	43.2	43.2	43.2	85	39.0	0	0	---	0.00	29.954 
02:45	43.1	43.1	43.1	85	38.9	0	0	---	0.00	29.950 
02:50	43.1	43.1	43.1	85	38.9	0	0	---	0.00	29.950 
02:55	43.1	43.1	43.1	85	38.9	0	0	---	0.00	29.950 
03:00	43.1	43.1	43.1	85	38.9	0	0	---	0.00	29.950 
03:05	43.1	43.1	43.1	86	39.2	0	0	---	0.00	29.950 
03:10	43.1	43.1	43.1	86	39.2	0	0	---	0.00	29.950 
03:15	43.1	43.1	43.1	86	39.2	0	0	---	0.00	29.949 
03:20	43.1	43.1	43.1	86	39.2	0	0	---	0.00	29.949 
03:25	43.1	43.1	43.1	87	39.5	0	0	---	0.00	29.949 
03:30	43.1	43.1	43.1	87	39.5	0	0	---	0.00	29.949 
03:35	43.1	43.1	43.1	87	39.5	0	0	---	0.00	29.949 
03:40	43.1	43.1	43.1	87	39.5	0	0	---	0.00	29.949 
03:45	43.1	43.1	43.1	87	39.5	0	0	---	0.00	29.946 
03:50	43.1	43.1	43.1	87	39.5	0	0	---	0.00	29.946 
03:55	42.9	42.9	42.9	87	39.3	0	0	---	0.00	29.946 
04:00	42.9	42.9	42.9	88	39.6	0	0	---	0.00	29.947 
04:05	42.8	42.8	42.8	88	39.5	0	0	---	0.00	29.947 
04:10	42.8	42.8	42.8	88	39.5	0	0	---	0.00	29.947 
04:15	42.8	42.8	42.8	88	39.5	0	0	---	0.00	29.952 
04:20	42.6	42.6	42.6	88	39.3	0	0	---	0.00	29.952 
04:25	42.6	42.6	42.6	88	39.3	0	0	---	0.00	29.952 
04:30	42.6	42.6	42.6	88	39.3	0	0	---	0.00	29.954 
04:35	42.6	42.6	42.6	88	39.3	0	0	---	0.00	29.954 
04:40	42.5	42.5	42.5	88	39.2	0	0	---	0.00	29.954 
04:45	42.5	42.5	42.5	88	39.2	0	0	---	0.00	29.956 
04:50	42.5	42.5	42.5	88	39.2	0	0	---	0.00	29.956 
04:55	42.5	42.5	42.5	88	39.2	0	0	---	0.00	29.956 
05:00	42.5	42.5	42.5	88	39.2	0	0	---	0.00	29.956 
05:05	42.3	42.3	42.3	89	39.3	0	0	---	0.00	29.956 
05:10	42.3	42.3	42.3	89	39.3	0	0	---	0.00	29.956 
05:15	42.2	42.2	42.2	89	39.2	0	0	---	0.00	29.958 
05:20	42.2	42.2	42.2	89	39.2	0	0	---	0.00	29.958 
05:25	42.1	42.1	42.1	89	39.1	0	0	---	0.00	29.958 
05:30	42.1	42.1	42.1	89	39.1	0	0	---	0.00	29.954 
05:35	41.9	41.9	41.9	89	38.9	0	0	---	0.00	29.954 
05:40	41.9	41.9	41.9	89	38.9	0	0	---	0.00	29.954 
05:45	41.9	41.9	41.9	90	39.2	0	0	---	0.00	29.957 
05:50	41.9	41.9	41.9	90	39.2	0	0	---	0.00	29.957 
05:55	42.1	42.1	42.1	90	39.4	0	0	---	0.00	29.957 
06:00	42.1	42.1	42.1	91	39.7	0	0	---	0.00	29.954 
06:05	41.9	41.9	41.9	91	39.5	0	0	---	0.00	29.954 
06:10	41.9	41.9	41.9	91	39.5	0	0	---	0.00	29.954 
06:15	41.9	41.9	41.9	91	39.5	0	0	---	0.00	29.958 
06:20	41.8	41.8	41.8	91	39.4	0	0	---	0.00	29.958 
06:25	41.8	41.8	41.8	91	39.4	0	0	---	0.00	29.958 
06:30	41.8	41.8	41.8	91	39.4	0	0	---	0.00	29.966 
06:35	41.8	41.8	41.8	91	39.4	0	0	---	0.00	29.966 
06:40	41.8	41.8	41.8	91	39.4	0	0	---	0.00	29.966 
06:45	41.6	41.6	41.6	92	39.5	0	0	---	0.00	29.971 
06:50	41.6	41.6	41.6	92	39.5	0	0	---	0.00	29.971 
06:55	41.6	41.6	41.6	92	39.5	0	0	---	0.00	29.971 
07:00	41.6	41.6	41.6	92	39.5	0	0	---	0.00	29.972 
07:05	41.6	41.6	41.6	92	39.5	0	0	---	0.00	29.972 
07:10	41.8	41.8	41.8	92	39.6	0	0	---	0.00	29.972 
07:15	41.8	41.8	41.8	92	39.6	0	0	---	0.00	29.973 
07:20	41.9	41.9	41.9	92	39.7	0	0	---	0.00	29.973 
07:25	42.1	42.1	42.1	92	39.9	0	0	---	0.00	29.973 
07:30	42.2	42.2	42.2	92	40.0	0	0	---	0.00	29.975 
07:35	42.5	42.5	42.5	92	40.3	0	0	---	0.00	29.975 
07:40	42.8	42.8	42.8	92	40.6	0	0	---	0.00	29.975 
07:45	43.2	43.2	43.2	93	41.3	0	0	---	0.00	29.976 
07:50	43.8	43.8	43.8	92	41.6	0	0	---	0.00	29.976 
07:55	44.5	44.5	44.5	93	42.6	0	0	---	0.00	29.976 
08:00	45.2	45.2	45.2	92	43.0	0	0	---	0.00	29.975 
08:05	46.1	46.1	46.1	92	43.9	0	0	---	0.00	29.975 
08:10	47.0	47.0	47.0	91	44.5	0	0	---	0.00	29.975 
08:15	48.0	48.0	48.0	90	45.2	0	0	---	0.00	29.972 
08:20	49.2	49.2	49.2	85	44.9	0	0	---	0.00	29.972 
08:25	50.4	50.4	50.4	80	44.5	0	0	---	0.00	29.972 
08:30	51.7	51.7	51.7	77	44.7	0	0	---	0.00	29.970 
08:35	52.3	52.3	52.3	74	44.3	0	1	315	0.00	29.970 
08:40	52.6	52.6	52.6	69	42.7	0	1	315	0.00	29.970 
08:45	53.2	53.2	53.2	68	42.9	0	1	315	0.00	29.977 
08:50	53.8	53.8	53.8	66	42.7	0	0	---	0.00	29.977 
08:55	54.2	54.2	54.2	62	41.5	0	0	---	0.00	29.977 
09:00	55.0	55.0	55.0	59	40.9	0	1	315	0.00	29.970 
09:05	55.7	55.7	55.7	60	42.0	0	1	315	0.00	29.970 
09:10	56.3	56.3	56.3	59	42.2	0	1	315	0.00	29.970 
09:15	56.9	56.9	56.9	55	40.9	0	1	315	0.00	29.971 
09:20	57.3	57.3	57.3	52	39.8	0	2	315	0.00	29.971 
09:25	57.8	57.8	57.8	54	41.3	0	1	315	0.00	29.971 
09:30	58.3	58.3	58.3	52	40.8	0	1	315	0.00	29.971 
09:35	58.9	58.9	58.9	51	40.8	0	1	315	0.00	29.971 
09:40	59.3	59.3	59.3	54	42.7	0	1	315	0.00	29.971 
09:45	59.8	59.8	59.8	49	40.6	0	2	315	0.00	29.970 
09:50	60.4	60.4	60.4	48	40.6	0	2	315	0.00	29.970 
09:55	61.0	61.0	61.0	45	39.5	0	2	315	0.00	29.970 
10:00	61.3	61.3	61.3	44	39.2	0	2	315	0.00	29.965 
10:05	61.8	61.8	61.8	47	41.4	0	1	315	0.00	29.965 
10:10	62.3	62.3	62.3	42	38.9	0	1	315	0.00	29.965 
10:15	62.9	62.9	62.9	42	39.5	0	2	315	0.00	29.964 
10:20	63.5	63.5	63.5	40	38.7	0	1	315	0.00	29.964 
10:25	64.0	64.0	64.0	35	35.8	0	1	315	0.00	29.964 
10:30	64.2	64.2	64.2	37	37.4	0	2	315	0.00	29.965 
10:35	64.5	64.5	64.5	39	39.0	0	1	315	0.00	29.965 
10:40	64.8	64.8	64.8	37	37.9	0	1	315	0.00	29.965 
10:45	65.2	65.2	65.2	34	36.1	0	1	315	0.00	29.965 
10:50	65.2	65.2	65.2	35	36.9	1	2	315	0.00	29.965 
10:55	65.0	65.0	65.0	31	33.6	1	2	315	0.00	29.965 
11:00	65.2	65.2	65.2	30	33.0	1	3	315	0.00	29.964 
11:05	65.6	65.6	65.6	31	34.1	0	3	338	0.00	29.964 
11:10	65.8	65.8	65.8	27	30.9	0	2	338	0.00	29.964 
11:15	66.4	66.4	66.4	31	34.8	0	2	338	0.00	29.966 
11:20	66.4	66.4	66.4	26	30.5	1	3	248	0.00	29.966 
11:25	66.4	66.4	66.4	29	33.2	0	2	248	0.00	29.966 
11:30	66.8	66.8	66.8	28	32.6	0	2	225	0.00	29.971 
11:35	66.8	66.8	66.8	26	30.8	1	3	248	0.00	29.971 
11:40	66.6	66.6	66.6	29	33.3	0	2	315	0.00	29.971 
11:45	66.4	66.4	66.4	28	32.3	1	3	292	0.00	29.976 
11:50	66.4	66.4	66.4	27	31.4	1	3	270	0.00	29.976 
11:55	66.3	66.3	66.3	24	28.4	1	3	0	0.00	29.976 
12:00	66.4	66.4	66.4	28	32.3	1	3	90	0.00	29.974 
12:05	66.4	66.4	66.4	25	29.5	1	4	248	0.00	29.974 
12:10	66.8	66.8	66.8	24	28.8	2	4	90	0.00	29.974 
12:15	67.3	67.3	67.3	28	33.1	1	2	90	0.00	29.973 
12:20	67.4	67.4	67.4	27	32.3	1	5	90	0.00	29.973 
12:25	67.4	67.4	67.4	28	33.2	1	7	90	0.00	29.973 
12:30	67.3	67.3	67.3	27	32.2	1	4	270	0.00	29.966 
12:35	67.4	67.4	67.4	31	35.7	1	3	270	0.00	29.966 
12:40	67.9	67.9	67.9	27	32.7	1	5	270	0.00	29.966 
12:45	67.6	67.6	67.6	24	29.5	1	4	270	0.00	29.964 
12:50	67.3	67.3	67.3	26	31.2	1	3	248	0.00	29.964 
12:55	67.4	67.4	67.4	25	30.4	0	2	248	0.00	29.964 
13:00	67.8	67.8	67.8	28	33.5	1	3	248	0.00	29.960 
13:05	67.8	67.8	67.8	27	32.6	1	3	248	0.00	29.960 
13:10	67.8	67.8	67.8	27	32.6	1	3	248	0.00	29.960 
13:15	67.8	67.8	67.8	25	30.7	1	2	315	0.00	29.963 
13:20	67.6	67.6	67.6	25	30.5	0	3	0	0.00	29.963 
13:25	67.9	67.9	67.9	28	33.6	0	2	0	0.00	29.963 
13:30	68.1	68.1	68.1	27	32.9	1	3	248	0.00	29.961 
13:35	68.3	68.3	68.3	27	33.0	1	5	248	0.00	29.961 
13:40	68.6	68.6	68.6	23	29.3	0	2	248	0.00	29.961 
13:45	68.9	68.9	68.9	27	33.5	0	2	248	0.00	29.952 
13:50	68.9	68.9	68.9	26	32.6	0	2	225	0.00	29.952 
13:55	69.1	69.1	69.1	26	32.8	1	3	225	0.00	29.952 
14:00	69.3	69.3	69.3	25	32.0	0	3	225	0.00	29.943 
14:05	68.6	68.6	68.6	26	32.3	1	3	248	0.00	29.943 
14:10	68.1	68.1	68.1	24	29.9	1	5	270	0.00	29.943 
14:15	68.1	68.1	68.1	26	31.9	1	3	270	0.00	29.938 
14:20	67.8	67.8	67.8	24	29.7	0	1	68	0.00	29.938 
14:25	67.8	67.8	67.8	24	29.7	0	2	22	0.00	29.938 
14:30	67.6	67.6	67.6	25	30.5	1	3	270	0.00	29.933 
14:35	67.3	67.3	67.3	27	32.2	0	2	270	0.00	29.933 
14:40	67.1	67.1	67.1	26	31.1	1	3	90	0.00	29.933 
14:45	67.1	67.1	67.1	26	31.1	0	2	68	0.00	29.929 
14:50	67.3	67.3	67.3	28	33.1	0	2	68	0.00	29.929 
14:55	67.4	67.4	67.4	26	31.3	0	2	68	0.00	29.929 
15:00	67.6	67.6	67.6	23	28.5	0	2	45	0.00	29.929 
15:05	67.8	67.8	67.8	27	32.6	0	3	45	0.00	29.929 
15:10	68.1	68.1	68.1	27	32.9	1	3	22	0.00	29.929 
15:15	68.1	68.1	68.1	25	30.9	1	4	112	0.00	29.922 
15:20	68.1	68.1	68.1	25	30.9	0	2	90	0.00	29.922 
15:25	68.1	68.1	68.1	25	30.9	0	1	90	0.00	29.922 
15:30	68.4	68.4	68.4	27	33.1	0	2	90	0.00	29.925 
15:35	68.6	68.6	68.6	28	34.2	1	3	68	0.00	29.925 
15:40	68.6	68.6	68.6	26	32.3	1	3	315	0.00	29.925 
15:45	68.8	68.8	68.8	27	33.5	0	1	315	0.00	29.927 
15:50	69.1	69.1	69.1	26	32.8	0	2	315	0.00	29.927 
15:55	69.1	69.1	69.1	26	32.8	0	2	315	0.00	29.927 
16:00	68.9	68.9	68.9	23	29.6	1	2	315	0.00	29.930 
16:05	68.8	68.8	68.8	23	29.5	1	2	292	0.00	29.930 
16:10	68.6	68.6	68.6	22	28.2	1	2	248	0.00	29.930 
16:15	68.6	68.6	68.6	26	32.3	0	1	248	0.00	29.928 
16:20	68.6	68.6	68.6	26	32.3	0	2	45	0.00	29.928 
16:25	68.6	68.6	68.6	25	31.4	0	1	45	0.00	29.928 
16:30	68.4	68.4	68.4	26	32.2	0	2	45	0.00	29.931 
16:35	68.4	68.4	68.4	24	30.2	1	3	338	0.00	29.931 
16:40	68.3	68.3	68.3	23	29.1	0	1	338	0.00	29.931 
16:45	68.3	68.3	68.3	24	30.1	0	1	338	0.00	29.928 
16:50	68.1	68.1	68.1	27	32.9	1	4	112	0.00	29.928 
16:55	67.9	67.9	67.9	24	29.8	0	1	112	0.00	29.928 
17:00	67.9	67.9	67.9	24	29.8	0	1	112	0.00	29.922 
17:05	68.1	68.1	68.1	26	31.9	0	2	112	0.00	29.922 
17:10	68.1	68.1	68.1	25	30.9	0	2	135	0.00	29.922 
17:15	68.3	68.3	68.3	25	31.1	0	2	202	0.00	29.923 
17:20	68.3	68.3	68.3	27	33.0	0	2	202	0.00	29.923 
17:25	67.9	67.9	67.9	25	30.8	0	2	22	0.00	29.923 
17:30	67.9	67.9	67.9	27	32.7	0	1	22	0.00	29.924 
17:35	67.8	67.8	67.8	25	30.7	0	2	22	0.00	29.924 
17:40	67.4	67.4	67.4	25	30.4	0	2	22	0.00	29.924 
17:45	67.4	67.4	67.4	25	30.4	0	1	22	0.00	29.925 
17:50	67.4	67.4	67.4	26	31.3	0	1	22	0.00	29.925 
17:55	67.3	67.3	67.3	26	31.2	0	1	22	0.00	29.925 
18:00	67.3	67.3	67.3	25	30.3	0	1	22	0.00	29.928 
18:05	67.3	67.3	67.3	26	31.2	0	2	22	0.00	29.928 
18:10	67.3	67.3	67.3	27	32.2	0	2	22	0.00	29.928 
18:15	67.3	67.3	67.3	25	30.3	1	2	22	0.00	29.935 
18:20	67.1	67.1	67.1	24	29.1	0	1	248	0.00	29.935 
18:25	67.1	67.1	67.1	26	31.1	0	1	248	0.00	29.935 
18:30	66.9	66.9	66.9	26	30.9	0	4	225	0.00	29.932 
18:35	66.9	66.9	66.9	28	32.7	0	0	---	0.00	29.932 
18:40	66.8	66.8	66.8	25	29.8	0	0	---	0.00	29.932 
18:45	66.8	66.8	66.8	26	30.8	0	1	225	0.00	29.928 
18:50	66.8	66.8	66.8	24	28.8	0	0	---	0.00	29.928 
18:55	66.6	66.6	66.6	25	29.7	0	1	225	0.00	29.928 
19:00	66.4	66.4	66.4	25	29.5	0	1	225	0.00	29.927 
19:05	66.4	66.4	66.4	26	30.5	0	0	---	0.00	29.927 
19:10	66.3	66.3	66.3	25	29.4	0	0	---	0.00	29.927 
19:15	66.3	66.3	66.3	26	30.4	0	1	225	0.00	29.925 
19:20	66.1	66.1	66.1	25	29.3	0	1	225	0.00	29.925 
19:25	66.0	66.0	66.0	26	30.1	0	1	225	0.00	29.925 
19:30	65.8	65.8	65.8	27	30.9	0	1	225	0.00	29.924 
19:35	65.6	65.6	65.6	25	28.8	0	1	225	0.00	29.924 
19:40	65.5	65.5	65.5	27	30.6	0	0	---	0.00	29.924 
19:45	65.3	65.3	65.3	26	29.5	0	1	225	0.00	29.924 
19:50	65.2	65.2	65.2	25	28.5	0	2	225	0.00	29.924 
19:55	65.0	65.0	65.0	27	30.2	0	0	---	0.00	29.924 
20:00	64.7	64.7	64.7	27	29.9	0	0	---	0.00	29.928 
20:05	64.5	64.5	64.5	28	30.7	0	0	---	0.00	29.928 
20:10	64.2	64.2	64.2	28	30.4	0	0	---	0.00	29.928 
20:15	63.7	63.7	63.7	28	30.0	0	0	---	0.00	29.924 
20:20	63.4	63.4	63.4	28	29.7	0	0	---	0.00	29.924 
20:25	62.9	62.9	62.9	28	29.3	0	0	---	0.00	29.924 
20:30	62.4	62.4	62.4	28	28.9	0	0	---	0.00	29.925 
20:35	62.0	62.0	62.0	29	29.4	0	0	---	0.00	29.925 
20:40	61.5	61.5	61.5	31	30.6	0	0	---	0.00	29.925 
20:45	60.9	60.9	60.9	32	30.8	0	0	---	0.00	29.924 
20:50	60.4	60.4	60.4	33	31.2	0	0	---	0.00	29.924 
20:55	59.9	59.9	59.9	35	32.2	0	0	---	0.00	29.924 
21:00	59.3	59.3	59.3	37	33.0	0	0	---	0.00	29.927 
21:05	58.9	58.9	58.9	40	34.6	0	0	---	0.00	29.927 
21:10	58.4	58.4	58.4	41	34.8	0	0	---	0.00	29.927 
21:15	58.0	58.0	58.0	44	36.2	0	0	---	0.00	29.925 
21:20	57.5	57.5	57.5	43	35.2	0	0	---	0.00	29.925 
21:25	57.0	57.0	57.0	44	35.3	0	0	---	0.00	29.925 
21:30	56.6	56.6	56.6	45	35.5	0	0	---	0.00	29.929 
21:35	56.3	56.3	56.3	46	35.8	0	0	---	0.00	29.929 
21:40	56.0	56.0	56.0	48	36.6	0	0	---	0.00	29.929 
21:45	55.7	55.7	55.7	49	36.8	0	0	---	0.00	29.933 
21:50	55.4	55.4	55.4	50	37.1	0	0	---	0.00	29.933 
21:55	55.3	55.3	55.3	52	38.0	0	0	---	0.00	29.933 
22:00	55.0	55.0	55.0	53	38.2	0	0	---	0.00	29.941 
22:05	54.7	54.7	54.7	52	37.4	0	0	---	0.00	29.941 
22:10	54.5	54.5	54.5	53	37.7	0	0	---	0.00	29.941 
22:15	54.2	54.2	54.2	54	37.9	0	0	---	0.00	29.943 
22:20	53.9	53.9	53.9	54	37.6	0	0	---	0.00	29.943 
22:25	53.6	53.6	53.6	55	37.8	0	0	---	0.00	29.943 
22:30	53.3	53.3	53.3	56	38.0	0	0	---	0.00	29.942 
22:35	53.2	53.2	53.2	59	39.2	0	0	---	0.00	29.942 
22:40	53.1	53.1	53.1	58	38.7	0	0	---	0.00	29.942 
22:45	52.9	52.9	52.9	58	38.5	0	0	---	0.00	29.942 
22:50	52.6	52.6	52.6	57	37.8	0	0	---	0.00	29.942 
22:55	52.5	52.5	52.5	58	38.2	0	0	---	0.00	29.942 
23:00	52.3	52.3	52.3	60	38.8	0	0	---	0.00	29.943 
23:05	52.2	52.2	52.2	60	38.7	0	0	---	0.00	29.943 
23:10	52.0	52.0	52.0	60	38.5	0	0	---	0.00	29.943 
23:15	51.9	51.9	51.9	60	38.5	0	0	---	0.00	29.945 
23:20	51.7	51.7	51.7	61	38.7	0	0	---	0.00	29.945 
23:25	51.4	51.4	51.4	59	37.6	0	0	---	0.00	29.945 
23:30	51.4	51.4	51.4	60	38.0	0	0	---	0.00	29.948 
23:35	51.3	51.3	51.3	61	38.3	0	0	---	0.00	29.948 
23:40	51.3	51.3	51.3	60	37.9	0	0	---	0.00	29.948 
23:45	51.1	51.1	51.1	59	37.3	0	0	---	0.00	29.948 
23:50	51.1	51.1	51.1	59	37.3	0	0	---	0.00	29.948 
23:55	51.0	51.0	51.0	59	37.2	0	0	---	0.00	29.948 

CoCoRaHS
IN-AL-39
A2 Web Hosting
Creative Commons License
GoDaddy
search engine by freefind advanced

loaded 2018-11-21 00:35:54 • last modified 2010-11-18 10:43:29
Privacy PolicyDisclaimer
• wx.awcolley.com is powered by PmWiki v.2002016 •
• all content (unless otherwise noted) © 2018 A W Colley